Time;durP1;ratioP1;P1;durP2;ratioP2;P2;SDS_P1;SDS_P2;PMS_P1;PMS_P2;Temp;Humidity;BMP_temperature;BMP_pressure;BME280_temperature;BME280_humidity;BME280_pressure;Samples;Min_cycle;Max_cycle;Signal;HPM_P1;HPM_P2
2022/04/27 00:01:10;;;;;;;18.80;12.27;;;11.90;87.00;;;;;;5075840;28;20350;-12
2022/04/27 00:03:37;;;;;;;16.60;11.27;;;11.90;87.90;;;;;;5076103;28;20031;-13
2022/04/27 00:06:03;;;;;;;20.90;14.73;;;11.90;88.00;;;;;;5075610;28;20140;-13
2022/04/27 00:08:29;;;;;;;19.70;13.27;;;11.80;88.20;;;;;;5075329;28;20021;-14
2022/04/27 00:10:55;;;;;;;21.92;14.38;;;11.80;88.50;;;;;;5075397;28;20035;-13
2022/04/27 00:13:21;;;;;;;20.23;14.07;;;11.80;88.60;;;;;;5075143;28;20560;-13
2022/04/27 00:15:47;;;;;;;15.75;10.77;;;11.80;88.30;;;;;;5075863;28;20025;-13
2022/04/27 00:18:13;;;;;;;19.95;12.93;;;11.70;88.40;;;;;;5075360;28;20052;-15
2022/04/27 00:20:39;;;;;;;23.25;14.95;;;11.70;88.50;;;;;;5075395;28;20473;-12
2022/04/27 00:23:05;;;;;;;18.52;11.68;;;11.70;88.40;;;;;;5075458;28;20028;-13
2022/04/27 00:25:32;;;;;;;18.17;13.05;;;11.60;87.80;;;;;;5075446;28;20442;-13
2022/04/27 00:27:59;;;;;;;23.85;15.07;;;11.70;87.60;;;;;;5075054;28;20040;-13
2022/04/27 00:30:25;;;;;;;17.50;10.45;;;11.60;87.70;;;;;;5074823;28;20070;-13
2022/04/27 00:32:51;;;;;;;23.90;14.63;;;11.60;87.50;;;;;;5075279;28;20032;-12
2022/04/27 00:35:17;;;;;;;27.80;16.90;;;11.50;87.50;;;;;;5074797;28;20491;-12
2022/04/27 00:37:43;;;;;;;16.70;10.50;;;11.50;87.50;;;;;;5075040;28;20025;-13
2022/04/27 00:40:10;;;;;;;18.98;12.00;;;11.50;87.60;;;;;;5075047;28;20041;-13
2022/04/27 00:42:37;;;;;;;18.00;11.55;;;11.50;87.40;;;;;;5074869;28;20074;-12
2022/04/27 00:45:05;;;;;;;17.67;11.02;;;11.40;87.40;;;;;;5075319;28;20346;-12
2022/04/27 00:47:34;;;;;;;18.08;11.93;;;11.40;87.40;;;;;;5074690;28;20067;-13
2022/04/27 00:50:02;;;;;;;23.25;14.90;;;11.40;87.20;;;;;;5074569;28;20380;-13
2022/04/27 00:52:32;;;;;;;15.40;10.75;;;11.30;87.20;;;;;;5074336;28;20025;-13
2022/04/27 00:54:58;;;;;;;20.35;13.50;;;11.30;87.20;;;;;;5074998;28;20027;-13
2022/04/27 00:57:26;;;;;;;15.00;9.95;;;11.20;87.60;;;;;;5074528;28;20100;-14
2022/04/27 00:59:53;;;;;;;25.48;16.00;;;11.20;87.40;;;;;;5074661;28;20029;-13
2022/04/27 01:02:20;;;;;;;25.85;16.77;;;11.20;87.50;;;;;;5074502;28;20500;-12
2022/04/27 01:04:47;;;;;;;33.90;19.30;;;11.20;87.50;;;;;;5074918;28;20032;-13
2022/04/27 01:07:14;;;;;;;32.25;18.90;;;11.20;88.20;;;;;;5074167;28;20380;-13
2022/04/27 01:09:40;;;;;;;37.08;20.90;;;11.20;89.10;;;;;;5074531;28;20149;-13
2022/04/27 01:12:07;;;;;;;39.00;21.42;;;11.30;89.90;;;;;;5074333;28;20036;-13
2022/04/27 01:14:50;;;;;;;36.47;20.67;;;11.40;90.10;;;;;;5073698;28;20504;-12
2022/04/27 01:17:17;;;;;;;48.10;24.70;;;11.40;89.90;;;;;;5074492;28;20035;-11
2022/04/27 01:19:43;;;;;;;61.38;28.15;;;11.50;90.80;;;;;;5074511;28;20285;-12
2022/04/27 01:22:09;;;;;;;47.95;25.13;;;11.60;91.40;;;;;;5074017;28;20028;-13
2022/04/27 01:24:36;;;;;;;46.65;23.00;;;11.60;91.30;;;;;;5074034;28;20090;-12
2022/04/27 01:27:02;;;;;;;40.90;21.65;;;11.60;91.30;;;;;;5073853;28;20025;-13
2022/04/27 01:29:28;;;;;;;40.60;22.63;;;11.60;91.00;;;;;;5074150;28;20019;-11
2022/04/27 01:31:54;;;;;;;40.42;23.02;;;11.60;90.80;;;;;;5073790;28;20063;-13
2022/04/27 01:34:20;;;;;;;33.05;18.80;;;11.60;90.60;;;;;;5073651;28;20104;-13
2022/04/27 01:36:46;;;;;;;46.50;25.10;;;11.60;90.30;;;;;;5074076;28;20115;-13
2022/04/27 01:39:12;;;;;;;36.80;20.33;;;11.60;90.20;;;;;;5073564;28;20140;-13
2022/04/27 01:41:38;;;;;;;40.58;19.98;;;11.60;90.40;;;;;;5073929;28;20070;-13
2022/04/27 01:44:05;;;;;;;41.83;21.92;;;11.60;90.30;;;;;;5073543;28;20032;-13
2022/04/27 01:46:31;;;;;;;41.80;21.15;;;11.60;90.60;;;;;;5073430;28;20052;-13
2022/04/27 01:48:57;;;;;;;43.15;22.27;;;11.60;91.00;;;;;;5073478;28;20032;-13
2022/04/27 01:54:15;;;;;;;42.35;21.42;;;11.60;91.10;;;;;;5073361;28;20535;-14
2022/04/27 01:54:16;;;;;;;37.97;19.70;;;11.60;90.90;;;;;;5073444;28;20029;-13
2022/04/27 01:56:48;;;;;;;41.35;21.40;;;11.60;90.70;;;;;;5073815;28;20025;-12
2022/04/27 01:59:15;;;;;;;42.80;21.50;;;11.50;90.70;;;;;;5073754;28;20033;-13
2022/04/27 02:01:42;;;;;;;42.90;22.27;;;11.50;90.70;;;;;;5073329;28;20541;-13
2022/04/27 02:04:09;;;;;;;27.70;15.93;;;11.40;90.50;;;;;;5073607;28;20051;-13
2022/04/27 02:06:38;;;;;;;26.13;14.55;;;11.40;90.30;;;;;;5073316;28;20107;-13
2022/04/27 02:09:05;;;;;;;23.92;13.55;;;11.40;90.10;;;;;;5073672;28;20017;-13
2022/04/27 02:11:32;;;;;;;21.02;12.43;;;11.30;89.80;;;;;;5073228;28;20535;-13
2022/04/27 02:13:59;;;;;;;26.83;15.68;;;11.30;89.50;;;;;;5072943;28;20424;-13
2022/04/27 02:16:26;;;;;;;23.08;12.95;;;11.30;89.40;;;;;;5072940;28;20025;-12
2022/04/27 02:18:52;;;;;;;23.48;12.85;;;11.20;89.30;;;;;;5073938;28;20070;-12
2022/04/27 02:21:20;;;;;;;26.45;15.55;;;11.10;89.20;;;;;;5072995;28;20029;-12
2022/04/27 02:23:46;;;;;;;26.48;15.55;;;11.10;89.10;;;;;;5073029;28;20033;-13
2022/04/27 02:26:12;;;;;;;24.92;13.40;;;11.10;89.00;;;;;;5073230;28;20107;-13
2022/04/27 02:28:39;;;;;;;20.77;11.30;;;11.00;89.00;;;;;;5072944;28;20061;-13
2022/04/27 02:31:05;;;;;;;18.17;11.40;;;11.00;88.90;;;;;;5073269;28;20031;-13
2022/04/27 02:33:31;;;;;;;19.65;11.27;;;11.00;88.90;;;;;;5072602;28;20028;-13
2022/04/27 02:35:58;;;;;;;19.23;11.98;;;10.90;88.80;;;;;;5072875;28;20032;-12
2022/04/27 02:38:24;;;;;;;21.08;11.82;;;10.90;88.80;;;;;;5072656;28;20500;-13
2022/04/27 02:40:50;;;;;;;17.40;10.75;;;10.90;88.70;;;;;;5073546;28;20056;-13
2022/04/27 02:43:17;;;;;;;19.60;11.55;;;10.90;88.70;;;;;;5073790;28;20032;-14
2022/04/27 02:45:43;;;;;;;21.77;12.60;;;10.80;88.60;;;;;;5072841;28;20082;-12
2022/04/27 02:48:09;;;;;;;34.03;13.35;;;10.70;88.50;;;;;;5072930;28;20519;-13
2022/04/27 02:53:21;;;;;;;17.55;11.23;;;10.70;88.40;;;;;;5073165;28;20035;-14
2022/04/27 02:55:47;;;;;;;20.33;12.07;;;10.60;88.40;;;;;;5073062;28;20038;-13
2022/04/27 02:58:13;;;;;;;19.38;10.68;;;10.60;88.40;;;;;;5072805;28;20404;-13
2022/04/27 03:00:39;;;;;;;16.30;10.13;;;10.50;88.50;;;;;;5073564;28;20067;-13
2022/04/27 03:03:09;;;;;;;17.80;9.38;;;10.50;88.50;;;;;;5072989;28;20032;-13
2022/04/27 03:05:35;;;;;;;15.68;8.90;;;10.50;88.50;;;;;;5072613;28;20029;-14
2022/04/27 03:08:01;;;;;;;17.60;8.60;;;10.40;88.40;;;;;;5072835;28;20024;-13
2022/04/27 03:10:27;;;;;;;27.38;8.13;;;10.40;88.30;;;;;;5072715;28;20028;-13
2022/04/27 03:12:53;;;;;;;12.32;7.65;;;10.30;88.30;;;;;;5072581;28;20469;-13
2022/04/27 03:15:19;;;;;;;15.70;9.00;;;10.30;88.30;;;;;;5072386;28;20548;-14
2022/04/27 03:17:45;;;;;;;13.27;7.40;;;10.20;88.30;;;;;;5072555;28;20115;-13
2022/04/27 03:20:11;;;;;;;14.02;7.90;;;10.20;88.30;;;;;;5072523;28;20040;-13
2022/04/27 03:22:37;;;;;;;29.05;9.48;;;10.20;88.30;;;;;;5072178;28;20041;-12
2022/04/27 03:25:03;;;;;;;138.43;11.90;;;10.10;88.30;;;;;;5072925;28;20035;-13
2022/04/27 03:27:29;;;;;;;14.27;6.72;;;10.00;88.30;;;;;;5072724;28;20017;-13
2022/04/27 03:29:55;;;;;;;12.13;6.50;;;9.90;88.20;;;;;;5072451;28;20024;-13
2022/04/27 03:32:22;;;;;;;28.52;9.07;;;9.90;88.20;;;;;;5072199;28;20036;-13
2022/04/27 03:34:48;;;;;;;173.13;13.40;;;9.90;88.20;;;;;;5072811;28;20488;-14
2022/04/27 03:37:14;;;;;;;58.63;8.77;;;9.80;88.20;;;;;;5072287;28;20124;-12
2022/04/27 03:39:40;;;;;;;28.05;8.00;;;9.70;88.20;;;;;;5072239;28;20120;-13
2022/04/27 03:42:06;;;;;;;12.35;7.80;;;9.70;88.30;;;;;;5072332;28;20051;-14
2022/04/27 03:44:32;;;;;;;27.60;9.40;;;9.60;88.40;;;;;;5073519;28;20070;-13
2022/04/27 03:46:58;;;;;;;34.22;7.88;;;9.60;88.50;;;;;;5076061;28;20024;-14
2022/04/27 03:49:24;;;;;;;37.55;7.95;;;9.60;88.50;;;;;;5075804;28;20025;-14
2022/04/27 03:51:50;;;;;;;14.00;7.93;;;9.60;88.50;;;;;;5075937;28;20031;-13
2022/04/27 03:54:16;;;;;;;13.95;8.00;;;9.60;88.40;;;;;;5075757;28;20050;-14
2022/04/27 03:56:42;;;;;;;11.88;6.57;;;9.60;88.50;;;;;;5075623;28;20442;-14
2022/04/27 03:59:08;;;;;;;17.80;7.97;;;9.50;88.40;;;;;;5075547;28;20484;-13
2022/04/27 04:01:33;;;;;;;15.20;6.00;;;9.50;88.40;;;;;;5075948;28;20078;-14
2022/04/27 04:03:59;;;;;;;11.65;6.28;;;9.50;88.30;;;;;;5075818;28;20029;-13
2022/04/27 04:06:25;;;;;;;18.55;8.25;;;9.40;88.40;;;;;;5075600;28;20460;-12
2022/04/27 04:08:51;;;;;;;13.20;5.88;;;9.40;88.40;;;;;;5075716;28;20017;-12
2022/04/27 04:11:19;;;;;;;18.08;6.55;;;9.40;88.40;;;;;;5075406;28;20261;-12
2022/04/27 04:13:46;;;;;;;219.27;14.35;;;9.40;88.40;;;;;;5075346;28;20044;-12
2022/04/27 04:16:12;;;;;;;11.05;6.15;;;9.40;88.30;;;;;;5075390;28;20017;-13
2022/04/27 04:18:37;;;;;;;10.38;6.68;;;9.30;88.30;;;;;;5075578;28;20050;-12
2022/04/27 04:21:03;;;;;;;11.48;7.90;;;9.30;88.30;;;;;;5075526;28;20028;-13
2022/04/27 04:23:29;;;;;;;29.25;9.07;;;9.30;88.40;;;;;;5075468;28;20040;-12
2022/04/27 04:28:39;;;;;;;11.32;7.97;;;9.30;88.50;;;;;;5075937;28;20032;-13
2022/04/27 04:31:05;;;;;;;12.35;8.18;;;9.30;88.50;;;;;;5075021;28;20044;-12
2022/04/27 04:33:31;;;;;;;10.60;7.00;;;9.30;88.40;;;;;;5075008;28;20068;-12
2022/04/27 04:35:58;;;;;;;56.35;10.25;;;9.30;88.60;;;;;;5074991;28;20028;-12
2022/04/27 04:38:25;;;;;;;29.25;11.27;;;9.40;88.70;;;;;;5074578;28;20028;-13
2022/04/27 04:40:52;;;;;;;13.43;8.32;;;9.30;88.80;;;;;;5075166;28;20031;-12
2022/04/27 04:43:19;;;;;;;10.38;7.13;;;9.30;89.00;;;;;;5075043;28;20020;-12
2022/04/27 04:45:44;;;;;;;10.45;7.30;;;9.30;88.90;;;;;;5075059;28;20101;-12
2022/04/27 04:48:11;;;;;;;11.20;7.07;;;9.40;88.80;;;;;;5074740;28;20392;-13
2022/04/27 04:50:37;;;;;;;13.95;8.73;;;9.40;88.90;;;;;;5074633;28;20040;-12
2022/04/27 04:53:05;;;;;;;16.48;9.80;;;9.50;88.80;;;;;;5074566;28;20036;-12
2022/04/27 04:55:31;;;;;;;19.10;9.88;;;9.60;88.60;;;;;;5074756;28;20100;-13
2022/04/27 04:57:57;;;;;;;14.45;8.60;;;9.70;88.50;;;;;;5074487;28;20028;-12
2022/04/27 05:00:24;;;;;;;13.85;9.15;;;9.80;88.40;;;;;;5074170;28;20044;-13
2022/04/27 05:02:50;;;;;;;17.10;11.43;;;9.90;88.50;;;;;;5074890;28;20048;-14
2022/04/27 05:05:16;;;;;;;16.88;11.43;;;9.90;88.40;;;;;;5073044;28;20067;-13
2022/04/27 05:07:41;;;;;;;14.38;9.38;;;10.10;88.50;;;;;;5074576;28;20029;-13
2022/04/27 05:10:08;;;;;;;16.65;10.93;;;10.20;88.40;;;;;;5074266;28;20040;-14
2022/04/27 05:12:37;;;;;;;14.13;9.18;;;10.30;88.50;;;;;;5074318;28;20106;-13
2022/04/27 05:15:04;;;;;;;14.05;9.00;;;10.50;88.80;;;;;;5073975;28;20535;-14
2022/04/27 05:17:30;;;;;;;13.82;8.43;;;10.60;88.90;;;;;;5074035;28;20029;-14
2022/04/27 05:19:56;;;;;;;12.38;8.43;;;10.70;89.00;;;;;;5074272;28;20028;-13
2022/04/27 05:22:21;;;;;;;11.48;7.65;;;10.90;89.10;;;;;;5073817;28;20024;-13
2022/04/27 05:24:47;;;;;;;13.82;9.10;;;11.00;89.30;;;;;;5073899;28;20034;-12
2022/04/27 05:27:13;;;;;;;13.32;9.07;;;11.30;89.40;;;;;;5074679;28;20021;-13
2022/04/27 05:32:27;;;;;;;16.70;8.90;;;11.80;89.30;;;;;;5074001;28;20074;-13
2022/04/27 05:34:53;;;;;;;12.68;8.80;;;12.00;89.00;;;;;;5073752;28;20029;-13
2022/04/27 05:37:20;;;;;;;14.52;8.82;;;12.30;87.90;;;;;;5072710;28;20032;-13
2022/04/27 05:39:46;;;;;;;15.07;9.05;;;12.50;88.10;;;;;;5074401;28;20076;-13
2022/04/27 05:42:12;;;;;;;11.93;7.57;;;12.80;87.90;;;;;;5073810;28;20025;-13
2022/04/27 05:44:38;;;;;;;10.75;6.43;;;12.90;87.90;;;;;;5073401;28;20031;-13
2022/04/27 05:47:04;;;;;;;10.98;7.30;;;13.10;87.90;;;;;;5073856;28;20029;-14
2022/04/27 05:49:30;;;;;;;11.55;8.15;;;13.30;88.10;;;;;;5073548;28;20032;-12
2022/04/27 05:51:56;;;;;;;10.43;7.05;;;13.40;88.00;;;;;;5073718;28;20027;-13
2022/04/27 05:54:22;;;;;;;12.77;7.90;;;13.50;87.50;;;;;;5073195;28;20024;-13
2022/04/27 05:56:49;;;;;;;11.45;7.32;;;13.50;87.00;;;;;;5073374;28;20028;-13
2022/04/27 05:59:14;;;;;;;41.92;27.02;;;13.50;85.40;;;;;;5073290;28;20028;-12
2022/04/27 06:01:41;;;;;;;13.48;8.38;;;13.50;86.60;;;;;;5073923;28;20024;-13
2022/04/27 06:04:07;;;;;;;9.35;6.40;;;13.70;86.60;;;;;;5073813;28;20047;-13
2022/04/27 06:06:33;;;;;;;9.55;6.50;;;13.80;84.60;;;;;;5072670;28;20028;-13
2022/04/27 06:08:59;;;;;;;9.77;7.03;;;14.00;85.90;;;;;;5073351;28;20024;-12
2022/04/27 06:11:25;;;;;;;8.88;5.90;;;14.30;86.40;;;;;;5073378;28;20021;-13
2022/04/27 06:13:51;;;;;;;8.45;5.13;;;14.60;86.30;;;;;;5073147;28;20114;-12
2022/04/27 06:16:17;;;;;;;8.18;5.82;;;14.90;85.90;;;;;;5072989;28;20052;-12
2022/04/27 06:18:45;;;;;;;6.47;4.18;;;15.20;84.80;;;;;;5073385;28;20033;-13
2022/04/27 06:21:11;;;;;;;6.57;4.00;;;15.60;83.30;;;;;;5073052;28;20052;-13
2022/04/27 06:23:41;;;;;;;6.82;5.07;;;15.90;81.30;;;;;;5073410;28;20029;-12
2022/04/27 06:26:07;;;;;;;8.80;5.43;;;16.30;79.60;;;;;;5073188;28;20036;-13
2022/04/27 06:28:33;;;;;;;9.20;4.70;;;16.60;77.00;;;;;;5072960;28;20016;-12
2022/04/27 06:31:00;;;;;;;5.85;4.10;;;16.90;78.50;;;;;;5071732;28;20028;-13
2022/04/27 06:33:26;;;;;;;6.88;3.90;;;17.30;78.00;;;;;;5073609;28;20024;-13
2022/04/27 06:35:53;;;;;;;4.55;3.40;;;17.70;74.90;;;;;;5072968;28;20037;-13
2022/04/27 06:38:19;;;;;;;3.97;3.00;;;17.90;74.70;;;;;;5073001;28;20036;-12
2022/04/27 06:40:46;;;;;;;4.40;2.50;;;18.40;72.70;;;;;;5073249;28;20082;-13
2022/04/27 06:43:12;;;;;;;3.97;2.30;;;18.60;68.70;;;;;;5072976;28;20105;-13
2022/04/27 06:45:37;;;;;;;2.17;1.98;;;18.80;66.90;;;;;;5073079;28;20150;-13
2022/04/27 06:48:04;;;;;;;2.55;2.10;;;18.90;65.80;;;;;;5073181;28;20116;-12
2022/04/27 06:50:30;;;;;;;3.45;2.00;;;19.00;65.20;;;;;;5072833;28;20028;-12
2022/04/27 06:52:59;;;;;;;2.65;2.15;;;19.20;63.90;;;;;;5073117;28;20047;-12
2022/04/27 06:55:27;;;;;;;3.20;1.85;;;19.30;62.40;;;;;;5072812;28;20028;-12
2022/04/27 06:57:54;;;;;;;3.08;2.20;;;19.40;62.00;;;;;;5072957;28;20036;-10
2022/04/27 07:00:21;;;;;;;3.28;2.00;;;19.30;59.70;;;;;;5072377;28;20117;-10
2022/04/27 07:02:47;;;;;;;3.58;2.05;;;19.20;59.30;;;;;;5054822;28;20044;-10
2022/04/27 07:05:17;;;;;;;2.80;2.00;;;19.10;59.10;;;;;;5073007;28;20029;-10
2022/04/27 07:07:44;;;;;;;3.35;2.00;;;19.10;58.20;;;;;;5072945;28;20028;-10
2022/04/27 07:10:12;;;;;;;2.42;1.80;;;19.30;58.20;;;;;;5073227;28;20071;-10
2022/04/27 07:12:38;;;;;;;3.20;2.15;;;19.30;58.70;;;;;;5072407;28;20036;-11
2022/04/27 07:15:05;;;;;;;3.17;2.33;;;19.30;57.60;;;;;;5072438;28;20048;-11
2022/04/27 07:17:31;;;;;;;3.17;2.17;;;19.40;58.20;;;;;;5072814;28;20030;-10
2022/04/27 07:19:57;;;;;;;2.40;2.20;;;19.40;58.00;;;;;;5075843;28;20051;-11
2022/04/27 07:22:24;;;;;;;2.58;2.28;;;19.40;57.20;;;;;;5076349;28;20109;-10
2022/04/27 07:24:50;;;;;;;3.50;2.20;;;19.40;57.90;;;;;;5076564;28;20031;-11
2022/04/27 07:27:17;;;;;;;2.55;2.08;;;19.40;56.40;;;;;;5076179;28;20064;-10
2022/04/27 07:29:43;;;;;;;3.25;2.08;;;19.50;56.50;;;;;;5076353;28;20028;-10
2022/04/27 07:32:09;;;;;;;2.97;1.90;;;19.60;56.40;;;;;;5076157;28;20016;-10
2022/04/27 07:34:35;;;;;;;2.78;2.20;;;19.70;55.70;;;;;;5075842;28;20107;-10
2022/04/27 07:37:02;;;;;;;4.05;2.20;;;19.80;56.10;;;;;;5076501;28;20063;-11
2022/04/27 07:39:29;;;;;;;2.88;2.47;;;19.90;56.40;;;;;;5076629;28;20140;-11
2022/04/27 07:41:55;;;;;;;2.83;2.33;;;20.10;55.90;;;;;;5076297;28;20028;-9
2022/04/27 07:44:21;;;;;;;4.97;2.40;;;20.20;56.00;;;;;;5075806;28;20510;-10
2022/04/27 07:46:50;;;;;;;3.08;2.10;;;20.30;54.80;;;;;;5076142;28;20020;-10
2022/04/27 07:49:22;;;;;;;5.30;2.60;;;20.20;55.40;;;;;;5076152;28;20047;-10
2022/04/27 07:51:49;;;;;;;3.28;2.20;;;20.10;54.90;;;;;;5075640;28;20153;-11
2022/04/27 07:54:15;;;;;;;2.70;2.15;;;19.90;55.80;;;;;;5075893;28;20077;-9
2022/04/27 07:56:41;;;;;;;4.07;2.42;;;20.10;56.20;;;;;;5075696;28;20468;-9
2022/04/27 07:59:07;;;;;;;2.92;2.20;;;20.10;55.80;;;;;;5075814;28;20043;-9
2022/04/27 08:01:33;;;;;;;4.93;2.67;;;20.10;56.30;;;;;;5075861;28;20025;-10
2022/04/27 08:03:59;;;;;;;4.57;2.60;;;20.10;56.50;;;;;;5075893;28;20029;-10
2022/04/27 08:06:25;;;;;;;3.25;2.35;;;20.10;55.00;;;;;;5075281;28;20033;-10
2022/04/27 08:08:51;;;;;;;4.28;2.05;;;20.10;55.40;;;;;;5076091;28;20499;-10
2022/04/27 08:11:18;;;;;;;2.78;1.88;;;20.10;53.90;;;;;;5075692;28;20362;-11
2022/04/27 08:13:44;;;;;;;2.63;1.92;;;20.10;53.50;;;;;;5075106;28;20087;-10
2022/04/27 08:16:11;;;;;;;4.90;1.80;;;20.20;53.40;;;;;;5075707;28;20032;-9
2022/04/27 08:18:41;;;;;;;7.65;1.95;;;20.30;54.50;;;;;;5075339;28;20037;-10
2022/04/27 08:21:15;;;;;;;2.75;1.90;;;20.50;54.50;;;;;;5075190;28;20123;-10
2022/04/27 08:23:44;;;;;;;2.97;1.65;;;20.60;53.10;;;;;;5075863;28;20020;-10
2022/04/27 08:26:13;;;;;;;2.25;1.77;;;20.80;54.30;;;;;;5075468;28;20020;-10
2022/04/27 08:28:41;;;;;;;3.13;1.90;;;21.00;54.70;;;;;;5075414;28;20073;-11
2022/04/27 08:31:08;;;;;;;2.42;1.90;;;21.20;53.70;;;;;;5074690;28;20035;-10
2022/04/27 08:33:35;;;;;;;2.45;1.73;;;21.20;52.70;;;;;;5074592;28;20016;-10
2022/04/27 08:36:03;;;;;;;3.78;1.38;;;21.20;52.90;;;;;;5074862;28;20025;-10
2022/04/27 08:38:30;;;;;;;1.70;1.60;;;21.10;52.70;;;;;;5074752;28;20035;-10
2022/04/27 08:40:56;;;;;;;1.98;1.67;;;21.10;51.70;;;;;;5075160;28;20071;-10
2022/04/27 08:43:23;;;;;;;2.08;1.48;;;21.20;52.10;;;;;;5075053;28;20047;-10
2022/04/27 08:45:50;;;;;;;1.33;1.23;;;20.90;50.20;;;;;;5075621;28;20066;-10
2022/04/27 08:48:21;;;;;;;1.60;1.30;;;20.90;52.00;;;;;;5074499;28;20036;-9
2022/04/27 08:50:49;;;;;;;2.75;1.55;;;21.00;51.50;;;;;;5074488;28;20040;-10
2022/04/27 08:53:15;;;;;;;1.20;1.10;;;21.10;51.80;;;;;;5074807;28;20020;-10
2022/04/27 08:55:41;;;;;;;3.67;1.70;;;21.30;49.20;;;;;;5074743;28;20354;-11
2022/04/27 08:58:17;;;;;;;2.05;1.40;;;21.40;49.00;;;;;;5074660;28;20519;-10
2022/04/27 09:00:45;;;;;;;2.55;1.30;;;21.60;48.80;;;;;;5074464;28;20047;-11
2022/04/27 09:03:29;;;;;;;1.50;1.40;;;21.80;49.30;;;;;;5073163;28;20379;-12
2022/04/27 09:06:00;;;;;;;1.42;1.15;;;21.90;49.20;;;;;;5074643;28;20028;-11
2022/04/27 09:08:47;;;;;;;3.45;1.85;;;22.00;49.40;;;;;;5074453;28;20043;-10
2022/04/27 09:11:20;;;;;;;3.42;1.90;;;22.30;48.10;;;;;;5074156;28;20028;-10
2022/04/27 09:13:55;;;;;;;2.50;1.40;;;22.40;48.70;;;;;;5073941;28;20145;-10
2022/04/27 09:16:23;;;;;;;2.58;2.35;;;22.40;47.60;;;;;;5074287;28;20047;-11
2022/04/27 09:22:03;;;;;;;2.10;1.90;;;22.30;46.60;;;;;;5074349;28;20170;-11
2022/04/27 09:24:51;;;;;;;3.17;2.53;;;22.10;45.50;;;;;;5072608;28;20074;-11
2022/04/27 09:27:22;;;;;;;3.08;2.50;;;21.80;45.80;;;;;;5073864;28;20029;-11
2022/04/27 09:30:14;;;;;;;2.85;2.60;;;21.50;46.60;;;;;;5072618;28;20460;-10
2022/04/27 09:32:53;;;;;;;3.17;2.55;;;21.40;47.30;;;;;;5071866;28;20028;-10
2022/04/27 09:35:39;;;;;;;4.95;2.90;;;21.50;45.20;;;;;;5073829;28;20067;-11
2022/04/27 09:38:16;;;;;;;3.63;3.33;;;21.70;46.60;;;;;;5073835;28;20481;-10
2022/04/27 09:40:56;;;;;;;3.50;3.20;;;21.90;46.80;;;;;;5074004;28;20087;-10
2022/04/27 09:43:47;;;;;;;4.00;3.65;;;22.30;46.10;;;;;;5073770;28;20025;-10
2022/04/27 09:46:24;;;;;;;8.77;7.72;;;22.30;44.60;;;;;;5074467;28;20028;-11
2022/04/27 09:49:09;;;;;;;7.32;6.63;;;22.10;44.40;;;;;;5072897;28;20075;-9
2022/04/27 09:51:48;;;;;;;6.75;5.65;;;21.90;45.80;;;;;;5073805;28;20029;-9
2022/04/27 09:54:21;;;;;;;11.45;10.35;;;22.20;47.10;;;;;;5073408;28;20412;-11
2022/04/27 09:56:49;;;;;;;;;;;22.40;45.50;;;;;;5073806;28;20420;-10
2022/04/27 09:59:18;;;;;;;13.30;11.98;;;22.60;43.80;;;;;;5073636;28;19958;-10
2022/04/27 10:01:47;;;;;;;12.18;11.02;;;22.80;44.50;;;;;;5073697;28;20029;-10
2022/04/27 10:04:16;;;;;;;12.60;11.50;;;22.80;44.40;;;;;;5073198;28;20031;-12
2022/04/27 10:06:42;;;;;;;9.48;8.57;;;22.80;45.10;;;;;;5073414;28;20058;-10
2022/04/27 10:09:09;;;;;;;9.80;8.80;;;22.80;44.50;;;;;;5073505;28;20070;-11
2022/04/27 10:11:37;;;;;;;9.90;8.90;;;22.90;44.90;;;;;;5073546;28;20543;-11
2022/04/27 10:14:04;;;;;;;6.30;5.70;;;23.10;42.80;;;;;;5073173;28;20052;-10
2022/04/27 10:16:30;;;;;;;5.53;5.03;;;23.30;44.20;;;;;;5072909;28;20440;-11
2022/04/27 10:18:56;;;;;;;5.28;4.10;;;23.70;44.20;;;;;;5073370;28;20036;-10
2022/04/27 10:21:43;;;;;;;6.20;5.03;;;23.90;42.50;;;;;;5073010;28;20099;-11
2022/04/27 10:24:11;;;;;;;5.55;3.90;;;23.70;41.20;;;;;;5073152;28;20029;-11
2022/04/27 10:26:37;;;;;;;3.83;3.22;;;23.50;42.90;;;;;;5073119;28;20108;-10
2022/04/27 10:29:09;;;;;;;3.70;3.40;;;23.60;43.00;;;;;;5073054;28;20017;-11
2022/04/27 10:31:48;;;;;;;4.25;3.85;;;23.80;42.80;;;;;;5073128;28;20476;-10
2022/04/27 10:34:22;;;;;;;3.28;2.97;;;23.90;41.80;;;;;;5072837;28;20488;-12
2022/04/27 10:36:56;;;;;;;3.15;2.85;;;24.20;42.90;;;;;;5073016;28;20021;-10
2022/04/27 10:39:27;;;;;;;2.50;2.30;;;24.70;42.20;;;;;;5072945;28;20036;-11
2022/04/27 10:42:05;;;;;;;2.55;2.35;;;25.20;41.90;;;;;;5073197;28;20021;-10
2022/04/27 10:44:54;;;;;;;3.53;2.30;;;25.80;40.80;;;;;;5072703;28;20036;-10
2022/04/27 10:47:22;;;;;;;1.67;1.55;;;26.40;41.10;;;;;;5072845;28;20458;-11
2022/04/27 10:50:09;;;;;;;2.08;1.50;;;26.80;40.40;;;;;;5072816;28;20025;-11
2022/04/27 10:52:51;;;;;;;3.33;2.00;;;27.20;40.30;;;;;;5072495;28;20040;-10
2022/04/27 10:55:35;;;;;;;2.85;1.90;;;27.70;35.10;;;;;;5077208;28;20035;-10
2022/04/27 10:58:13;;;;;;;2.60;1.80;;;28.00;37.90;;;;;;5077012;28;20037;-10
2022/04/27 11:00:58;;;;;;;1.90;1.30;;;28.10;37.00;;;;;;5076704;28;20094;-11
2022/04/27 11:03:31;;;;;;;1.40;1.30;;;28.10;36.50;;;;;;5077532;28;20036;-11
2022/04/27 11:05:59;;;;;;;1.35;1.25;;;28.10;36.30;;;;;;5077241;28;20393;-12
2022/04/27 11:08:42;;;;;;;1.80;1.38;;;28.20;36.60;;;;;;5076767;28;20025;-10
2022/04/27 11:11:11;;;;;;;;;;;28.40;35.10;;;;;;5077935;28;20052;-10
2022/04/27 11:13:37;;;;;;;2.50;1.20;;;28.60;34.20;;;;;;5076616;28;19920;-11
2022/04/27 11:16:11;;;;;;;1.00;1.00;;;28.90;34.00;;;;;;5076523;28;20016;-11
2022/04/27 11:18:50;;;;;;;2.05;1.40;;;29.20;34.70;;;;;;5075035;28;20123;-11
2022/04/27 11:21:21;;;;;;;1.70;1.33;;;29.40;33.30;;;;;;5076562;28;20021;-10
2022/04/27 11:23:47;;;;;;;1.20;1.10;;;29.60;33.40;;;;;;5076606;28;20029;-11
2022/04/27 11:26:13;;;;;;;2.30;1.20;;;29.70;33.50;;;;;;5076542;28;20028;-10
2022/04/27 11:28:43;;;;;;;2.08;1.20;;;29.80;33.50;;;;;;5076560;28;20036;-10
2022/04/27 11:31:13;;;;;;;1.60;1.50;;;29.70;33.40;;;;;;5076150;28;20488;-10
2022/04/27 11:33:40;;;;;;;1.73;1.52;;;29.80;33.80;;;;;;5076483;28;20070;-11
2022/04/27 11:36:19;;;;;;;1.80;1.50;;;30.10;33.60;;;;;;5074759;28;20404;-11
2022/04/27 11:38:45;;;;;;;1.92;1.23;;;30.30;32.60;;;;;;5076318;28;20039;-11
2022/04/27 11:41:22;;;;;;;1.52;1.20;;;30.40;32.60;;;;;;5076857;28;20107;-11
2022/04/27 11:43:50;;;;;;;1.52;1.15;;;30.50;32.60;;;;;;5076020;28;20480;-11
2022/04/27 11:46:17;;;;;;;2.10;1.45;;;30.70;31.80;;;;;;5076104;28;20021;-11
2022/04/27 11:48:53;;;;;;;1.80;1.70;;;31.00;30.20;;;;;;5075997;28;20542;-11
2022/04/27 11:51:19;;;;;;;3.25;1.38;;;31.00;30.30;;;;;;5076551;28;20036;-11
2022/04/27 11:53:47;;;;;;;2.38;1.58;;;30.80;32.30;;;;;;5076073;28;20536;-10
2022/04/27 11:56:18;;;;;;;1.35;1.25;;;30.80;32.80;;;;;;5075528;28;20025;-13
2022/04/27 11:58:45;;;;;;;2.63;1.98;;;31.00;33.40;;;;;;5075631;28;20032;-11
2022/04/27 12:01:20;;;;;;;3.50;1.60;;;31.30;32.20;;;;;;5075636;28;20427;-11
2022/04/27 12:03:49;;;;;;;1.95;1.58;;;31.30;32.40;;;;;;5075634;28;20036;-10
2022/04/27 12:06:19;;;;;;;2.15;1.58;;;31.50;32.50;;;;;;5074208;28;20056;-11
2022/04/27 12:08:45;;;;;;;1.13;1.02;;;31.80;32.20;;;;;;5075555;28;20372;-10
2022/04/27 12:11:22;;;;;;;1.60;1.50;;;32.00;31.30;;;;;;5075679;28;20438;-11
2022/04/27 12:13:49;;;;;;;1.70;1.60;;;32.20;31.10;;;;;;5075089;28;20037;-10
2022/04/27 12:16:15;;;;;;;2.17;1.70;;;32.30;30.30;;;;;;5075251;28;20492;-12
2022/04/27 12:19:01;;;;;;;2.22;1.25;;;32.40;30.40;;;;;;5075234;28;20075;-11
2022/04/27 12:21:28;;;;;;;1.60;1.50;;;32.20;29.40;;;;;;5075905;28;20070;-11
2022/04/27 12:23:57;;;;;;;1.70;1.42;;;32.40;30.70;;;;;;5075235;28;20105;-11
2022/04/27 12:26:26;;;;;;;2.03;1.45;;;32.40;30.40;;;;;;5074987;28;20028;-12
2022/04/27 12:28:53;;;;;;;1.75;1.65;;;32.40;30.40;;;;;;5075711;28;20491;-11
2022/04/27 12:31:20;;;;;;;1.63;1.45;;;32.10;30.60;;;;;;5075411;28;20484;-11
2022/04/27 12:33:51;;;;;;;3.53;1.55;;;31.90;31.30;;;;;;5075022;28;20495;-10
2022/04/27 12:39:23;;;;;;;1.67;1.58;;;32.00;30.20;;;;;;5075459;28;20622;-12
2022/04/27 12:41:52;;;;;;;2.35;1.55;;;32.20;30.60;;;;;;5075438;28;20381;-11
2022/04/27 12:44:26;;;;;;;2.80;1.38;;;32.40;28.70;;;;;;5074609;28;20036;-11
2022/04/27 12:47:01;;;;;;;5.80;1.75;;;32.30;28.70;;;;;;5075136;28;20029;-12
2022/04/27 12:49:34;;;;;;;2.05;1.70;;;32.30;29.50;;;;;;5074702;28;20396;-11
2022/04/27 12:52:35;;;;;;;1.83;1.50;;;32.20;29.50;;;;;;5074833;28;20051;-12
2022/04/27 12:55:09;;;;;;;2.03;1.05;;;32.10;28.90;;;;;;5075529;28;20028;-11
2022/04/27 12:58:03;;;;;;;2.10;1.25;;;32.30;30.60;;;;;;5074653;28;20104;-10
2022/04/27 13:00:44;;;;;;;;;;;32.50;28.80;;;;;;5073191;28;20040;-12
2022/04/27 13:03:11;;;;;;;1.70;1.20;;;32.60;28.10;;;;;;5074732;28;19927;-11